Terminal Aerodrome Forecast
Issued by NWS

Home | Current Version | Previous Version | Text Only | Print | Product List | Glossary On
Versions: 1 2 3 4 5 6 7 8 9 10 11 12 13 14 15 16 17 18 19 20 21 22
000
FTUS44 KCRP 160500
TAFALI
TAF
KALI 160540Z 1606/1706 03005KT P6SM FEW050 BKN150
     FM161000 VRB03KT P6SM VCSH BKN015 OVC100
      TEMPO 1610/1613 5SM BR SCT015
     FM161500 07005KT P6SM VCSH OVC025
      TEMPO 1615/1618 VRB15G25KT 5SM TSRA OVC020CB
     FM161800 11006KT P6SM VCTS BKN035CB
      TEMPO 1618/1622 2SM +TSRA BR BKN025CB
     FM162200 13010KT P6SM VCTS BKN035CB
     FM170300 12005KT P6SM SCT030=

USA.gov is the U.S. government's official web portal to all federal, state and local government web resources and services.